sensor_id;sensor_type;location;lat;lon;timestamp;temperature;humidity
12578;DHT22;6354;51.026;8.968;2023-02-05T00:01:49;2.50;99.90
12578;DHT22;6354;51.026;8.968;2023-02-05T00:04:18;2.50;99.90
12578;DHT22;6354;51.026;8.968;2023-02-05T00:06:46;2.50;99.90
12578;DHT22;6354;51.026;8.968;2023-02-05T00:09:16;2.50;99.90
12578;DHT22;6354;51.026;8.968;2023-02-05T00:11:44;2.40;99.90
12578;DHT22;6354;51.026;8.968;2023-02-05T00:14:12;2.30;99.90
12578;DHT22;6354;51.026;8.968;2023-02-05T00:16:40;2.30;99.90
12578;DHT22;6354;51.026;8.968;2023-02-05T00:19:08;2.20;99.90
12578;DHT22;6354;51.026;8.968;2023-02-05T00:21:36;2.20;99.90
12578;DHT22;6354;51.026;8.968;2023-02-05T00:24:04;2.20;99.90
12578;DHT22;6354;51.026;8.968;2023-02-05T00:26:34;2.20;99.90
12578;DHT22;6354;51.026;8.968;2023-02-05T00:29:02;2.20;99.90
12578;DHT22;6354;51.026;8.968;2023-02-05T00:31:30;2.30;99.90
12578;DHT22;6354;51.026;8.968;2023-02-05T00:33:59;2.30;99.90
12578;DHT22;6354;51.026;8.968;2023-02-05T00:36:27;2.30;99.90
12578;DHT22;6354;51.026;8.968;2023-02-05T00:38:55;2.30;99.90
12578;DHT22;6354;51.026;8.968;2023-02-05T00:41:23;2.30;99.90
12578;DHT22;6354;51.026;8.968;2023-02-05T00:43:52;2.30;99.90
12578;DHT22;6354;51.026;8.968;2023-02-05T00:46:20;2.30;99.90
12578;DHT22;6354;51.026;8.968;2023-02-05T00:48:49;2.20;99.90
12578;DHT22;6354;51.026;8.968;2023-02-05T00:51:17;2.30;99.90
12578;DHT22;6354;51.026;8.968;2023-02-05T00:53:45;2.20;99.90
12578;DHT22;6354;51.026;8.968;2023-02-05T00:56:13;2.20;99.90
12578;DHT22;6354;51.026;8.968;2023-02-05T00:58:41;2.20;99.90
12578;DHT22;6354;51.026;8.968;2023-02-05T01:01:14;2.20;99.90
12578;DHT22;6354;51.026;8.968;2023-02-05T01:03:43;2.20;99.90
12578;DHT22;6354;51.026;8.968;2023-02-05T01:06:11;2.20;99.90
12578;DHT22;6354;51.026;8.968;2023-02-05T01:08:39;2.20;99.90
12578;DHT22;6354;51.026;8.968;2023-02-05T01:11:08;2.10;99.90
12578;DHT22;6354;51.026;8.968;2023-02-05T01:13:37;2.10;99.90
12578;DHT22;6354;51.026;8.968;2023-02-05T01:16:05;2.10;99.90
12578;DHT22;6354;51.026;8.968;2023-02-05T01:18:35;2.10;99.90
12578;DHT22;6354;51.026;8.968;2023-02-05T01:21:03;2.10;99.90
12578;DHT22;6354;51.026;8.968;2023-02-05T01:23:31;2.10;99.90
12578;DHT22;6354;51.026;8.968;2023-02-05T01:26:00;2.10;99.90
12578;DHT22;6354;51.026;8.968;2023-02-05T01:28:28;2.10;99.90
12578;DHT22;6354;51.026;8.968;2023-02-05T01:30:56;2.10;99.90
12578;DHT22;6354;51.026;8.968;2023-02-05T01:33:24;2.10;99.90
12578;DHT22;6354;51.026;8.968;2023-02-05T01:35:53;2.10;99.90
12578;DHT22;6354;51.026;8.968;2023-02-05T01:38:21;2.10;99.90
12578;DHT22;6354;51.026;8.968;2023-02-05T01:40:49;2.00;99.90
12578;DHT22;6354;51.026;8.968;2023-02-05T01:43:17;1.90;99.90
12578;DHT22;6354;51.026;8.968;2023-02-05T01:46:18;2.00;99.90
12578;DHT22;6354;51.026;8.968;2023-02-05T01:48:49;2.00;99.90
12578;DHT22;6354;51.026;8.968;2023-02-05T01:51:21;2.00;99.90
12578;DHT22;6354;51.026;8.968;2023-02-05T01:53:51;2.00;99.90
12578;DHT22;6354;51.026;8.968;2023-02-05T01:56:21;2.00;99.90
12578;DHT22;6354;51.026;8.968;2023-02-05T01:58:54;2.10;99.90
12578;DHT22;6354;51.026;8.968;2023-02-05T02:01:23;2.00;99.90
12578;DHT22;6354;51.026;8.968;2023-02-05T02:03:54;2.10;99.90
12578;DHT22;6354;51.026;8.968;2023-02-05T02:06:24;2.10;99.90
12578;DHT22;6354;51.026;8.968;2023-02-05T02:08:52;2.10;99.90
12578;DHT22;6354;51.026;8.968;2023-02-05T02:11:22;2.10;99.90
12578;DHT22;6354;51.026;8.968;2023-02-05T02:13:54;2.10;99.90
12578;DHT22;6354;51.026;8.968;2023-02-05T02:16:24;2.10;99.90
12578;DHT22;6354;51.026;8.968;2023-02-05T02:18:52;2.10;99.90
12578;DHT22;6354;51.026;8.968;2023-02-05T02:21:44;2.10;99.90
12578;DHT22;6354;51.026;8.968;2023-02-05T02:24:45;2.10;99.90
12578;DHT22;6354;51.026;8.968;2023-02-05T02:27:33;2.10;99.90
12578;DHT22;6354;51.026;8.968;2023-02-05T02:30:05;2.00;99.90
12578;DHT22;6354;51.026;8.968;2023-02-05T02:32:38;2.10;99.90
12578;DHT22;6354;51.026;8.968;2023-02-05T02:35:12;2.00;99.90
12578;DHT22;6354;51.026;8.968;2023-02-05T02:37:46;2.10;99.90
12578;DHT22;6354;51.026;8.968;2023-02-05T02:40:20;2.10;99.90
12578;DHT22;6354;51.026;8.968;2023-02-05T02:42:55;2.10;99.90
12578;DHT22;6354;51.026;8.968;2023-02-05T02:45:27;2.10;99.90
12578;DHT22;6354;51.026;8.968;2023-02-05T02:47:58;2.20;99.90
12578;DHT22;6354;51.026;8.968;2023-02-05T02:50:29;2.20;99.90
12578;DHT22;6354;51.026;8.968;2023-02-05T02:53:02;2.20;99.90
12578;DHT22;6354;51.026;8.968;2023-02-05T02:55:40;2.30;99.90
12578;DHT22;6354;51.026;8.968;2023-02-05T02:58:15;2.30;99.90
12578;DHT22;6354;51.026;8.968;2023-02-05T03:00:45;2.30;99.90
12578;DHT22;6354;51.026;8.968;2023-02-05T03:03:16;2.30;99.90
12578;DHT22;6354;51.026;8.968;2023-02-05T03:05:48;2.30;99.90
12578;DHT22;6354;51.026;8.968;2023-02-05T03:08:19;2.30;99.90
12578;DHT22;6354;51.026;8.968;2023-02-05T03:10:53;2.40;99.90
12578;DHT22;6354;51.026;8.968;2023-02-05T03:13:23;2.40;99.90
12578;DHT22;6354;51.026;8.968;2023-02-05T03:15:52;2.40;99.90
12578;DHT22;6354;51.026;8.968;2023-02-05T03:18:20;2.40;99.90
12578;DHT22;6354;51.026;8.968;2023-02-05T03:20:51;2.50;99.90
12578;DHT22;6354;51.026;8.968;2023-02-05T03:23:19;2.60;99.90
12578;DHT22;6354;51.026;8.968;2023-02-05T03:25:47;2.60;99.90
12578;DHT22;6354;51.026;8.968;2023-02-05T03:28:15;2.60;99.90
12578;DHT22;6354;51.026;8.968;2023-02-05T03:30:52;2.60;99.90
12578;DHT22;6354;51.026;8.968;2023-02-05T03:33:33;2.60;99.90
12578;DHT22;6354;51.026;8.968;2023-02-05T03:36:11;2.60;99.90
12578;DHT22;6354;51.026;8.968;2023-02-05T03:38:58;2.60;99.90
12578;DHT22;6354;51.026;8.968;2023-02-05T03:41:35;2.60;99.90
12578;DHT22;6354;51.026;8.968;2023-02-05T03:44:32;2.70;99.90
12578;DHT22;6354;51.026;8.968;2023-02-05T03:47:07;2.70;99.90
12578;DHT22;6354;51.026;8.968;2023-02-05T03:49:48;2.70;99.90
12578;DHT22;6354;51.026;8.968;2023-02-05T03:52:28;2.80;99.90
12578;DHT22;6354;51.026;8.968;2023-02-05T03:55:03;2.80;99.90
12578;DHT22;6354;51.026;8.968;2023-02-05T03:57:37;2.80;99.90
12578;DHT22;6354;51.026;8.968;2023-02-05T04:00:07;2.80;99.90
12578;DHT22;6354;51.026;8.968;2023-02-05T04:02:37;2.80;99.90
12578;DHT22;6354;51.026;8.968;2023-02-05T04:05:06;2.80;99.90
12578;DHT22;6354;51.026;8.968;2023-02-05T04:07:34;2.80;99.90
12578;DHT22;6354;51.026;8.968;2023-02-05T04:10:02;2.90;99.90
12578;DHT22;6354;51.026;8.968;2023-02-05T04:12:31;2.90;99.90
12578;DHT22;6354;51.026;8.968;2023-02-05T04:14:59;2.90;99.90
12578;DHT22;6354;51.026;8.968;2023-02-05T04:17:27;3.00;99.90
12578;DHT22;6354;51.026;8.968;2023-02-05T04:19:56;3.00;99.90
12578;DHT22;6354;51.026;8.968;2023-02-05T04:22:24;2.90;99.90
12578;DHT22;6354;51.026;8.968;2023-02-05T04:24:52;3.00;99.90
12578;DHT22;6354;51.026;8.968;2023-02-05T04:27:20;3.00;99.90
12578;DHT22;6354;51.026;8.968;2023-02-05T04:29:48;3.00;99.90
12578;DHT22;6354;51.026;8.968;2023-02-05T04:32:16;3.00;99.90
12578;DHT22;6354;51.026;8.968;2023-02-05T04:34:45;3.10;99.90
12578;DHT22;6354;51.026;8.968;2023-02-05T04:37:14;3.10;99.90
12578;DHT22;6354;51.026;8.968;2023-02-05T04:39:42;3.00;99.90
12578;DHT22;6354;51.026;8.968;2023-02-05T04:42:10;3.10;99.90
12578;DHT22;6354;51.026;8.968;2023-02-05T04:44:38;3.10;99.90
12578;DHT22;6354;51.026;8.968;2023-02-05T04:47:07;3.10;99.90
12578;DHT22;6354;51.026;8.968;2023-02-05T04:49:35;3.10;99.90
12578;DHT22;6354;51.026;8.968;2023-02-05T04:52:03;3.20;99.90
12578;DHT22;6354;51.026;8.968;2023-02-05T04:54:32;3.20;99.90
12578;DHT22;6354;51.026;8.968;2023-02-05T04:57:01;3.20;99.90
12578;DHT22;6354;51.026;8.968;2023-02-05T04:59:29;3.20;99.90
12578;DHT22;6354;51.026;8.968;2023-02-05T05:01:57;3.20;99.90
12578;DHT22;6354;51.026;8.968;2023-02-05T05:04:25;3.30;99.90
12578;DHT22;6354;51.026;8.968;2023-02-05T05:06:53;3.30;99.90
12578;DHT22;6354;51.026;8.968;2023-02-05T05:09:21;3.30;99.90
12578;DHT22;6354;51.026;8.968;2023-02-05T05:11:53;3.30;99.90
12578;DHT22;6354;51.026;8.968;2023-02-05T05:14:22;3.30;99.90
12578;DHT22;6354;51.026;8.968;2023-02-05T05:16:50;3.20;99.90
12578;DHT22;6354;51.026;8.968;2023-02-05T05:19:18;3.20;99.90
12578;DHT22;6354;51.026;8.968;2023-02-05T05:21:46;3.20;99.90
12578;DHT22;6354;51.026;8.968;2023-02-05T05:24:14;3.20;99.90
12578;DHT22;6354;51.026;8.968;2023-02-05T05:26:42;3.30;99.90
12578;DHT22;6354;51.026;8.968;2023-02-05T05:29:12;3.20;99.90
12578;DHT22;6354;51.026;8.968;2023-02-05T05:31:41;3.20;99.90
12578;DHT22;6354;51.026;8.968;2023-02-05T05:34:09;3.30;99.90
12578;DHT22;6354;51.026;8.968;2023-02-05T05:36:37;3.20;99.90
12578;DHT22;6354;51.026;8.968;2023-02-05T05:39:05;3.30;99.90
12578;DHT22;6354;51.026;8.968;2023-02-05T05:41:51;3.30;99.90
12578;DHT22;6354;51.026;8.968;2023-02-05T05:44:38;3.30;99.90
12578;DHT22;6354;51.026;8.968;2023-02-05T05:47:06;3.30;99.90
12578;DHT22;6354;51.026;8.968;2023-02-05T05:49:34;3.30;99.90
12578;DHT22;6354;51.026;8.968;2023-02-05T05:52:02;3.30;99.90
12578;DHT22;6354;51.026;8.968;2023-02-05T05:54:30;3.30;99.90
12578;DHT22;6354;51.026;8.968;2023-02-05T05:56:58;3.30;99.90
12578;DHT22;6354;51.026;8.968;2023-02-05T05:59:26;3.30;99.90
12578;DHT22;6354;51.026;8.968;2023-02-05T06:01:56;3.40;99.90
12578;DHT22;6354;51.026;8.968;2023-02-05T06:04:24;3.40;99.90
12578;DHT22;6354;51.026;8.968;2023-02-05T06:06:52;3.40;99.90
12578;DHT22;6354;51.026;8.968;2023-02-05T06:09:20;3.40;99.90
12578;DHT22;6354;51.026;8.968;2023-02-05T06:11:49;3.40;99.90
12578;DHT22;6354;51.026;8.968;2023-02-05T06:14:18;3.40;99.90
12578;DHT22;6354;51.026;8.968;2023-02-05T06:16:46;3.30;99.90
12578;DHT22;6354;51.026;8.968;2023-02-05T06:19:15;3.30;99.90
12578;DHT22;6354;51.026;8.968;2023-02-05T06:21:43;3.30;99.90
12578;DHT22;6354;51.026;8.968;2023-02-05T06:24:11;3.20;99.90
12578;DHT22;6354;51.026;8.968;2023-02-05T06:26:39;3.30;99.90
12578;DHT22;6354;51.026;8.968;2023-02-05T06:29:07;3.30;99.90
12578;DHT22;6354;51.026;8.968;2023-02-05T06:31:35;3.30;99.90
12578;DHT22;6354;51.026;8.968;2023-02-05T06:34:03;3.30;99.90
12578;DHT22;6354;51.026;8.968;2023-02-05T06:36:33;3.30;99.90
12578;DHT22;6354;51.026;8.968;2023-02-05T06:39:01;3.30;99.90
12578;DHT22;6354;51.026;8.968;2023-02-05T06:41:29;3.30;99.90
12578;DHT22;6354;51.026;8.968;2023-02-05T06:43:57;3.20;99.90
12578;DHT22;6354;51.026;8.968;2023-02-05T06:46:25;3.20;99.90
12578;DHT22;6354;51.026;8.968;2023-02-05T06:48:53;3.20;99.90
12578;DHT22;6354;51.026;8.968;2023-02-05T06:51:21;3.20;99.90
12578;DHT22;6354;51.026;8.968;2023-02-05T06:53:50;3.20;99.90
12578;DHT22;6354;51.026;8.968;2023-02-05T06:56:20;3.20;99.90
12578;DHT22;6354;51.026;8.968;2023-02-05T06:58:48;3.20;99.90
12578;DHT22;6354;51.026;8.968;2023-02-05T07:01:17;3.30;99.90
12578;DHT22;6354;51.026;8.968;2023-02-05T07:03:46;3.30;99.90
12578;DHT22;6354;51.026;8.968;2023-02-05T07:06:14;3.20;99.90
12578;DHT22;6354;51.026;8.968;2023-02-05T07:08:42;3.30;99.90
12578;DHT22;6354;51.026;8.968;2023-02-05T07:11:11;3.20;99.90
12578;DHT22;6354;51.026;8.968;2023-02-05T07:13:39;3.30;99.90
12578;DHT22;6354;51.026;8.968;2023-02-05T07:16:07;3.30;99.90
12578;DHT22;6354;51.026;8.968;2023-02-05T07:18:36;3.20;99.90
12578;DHT22;6354;51.026;8.968;2023-02-05T07:21:05;3.20;99.90
12578;DHT22;6354;51.026;8.968;2023-02-05T07:23:34;3.20;99.90
12578;DHT22;6354;51.026;8.968;2023-02-05T07:26:06;3.20;99.90
12578;DHT22;6354;51.026;8.968;2023-02-05T07:28:36;3.20;99.90
12578;DHT22;6354;51.026;8.968;2023-02-05T07:31:05;3.20;99.90
12578;DHT22;6354;51.026;8.968;2023-02-05T07:33:33;3.20;99.90
12578;DHT22;6354;51.026;8.968;2023-02-05T07:36:02;3.20;99.90
12578;DHT22;6354;51.026;8.968;2023-02-05T07:38:31;3.20;99.90
12578;DHT22;6354;51.026;8.968;2023-02-05T07:41:02;3.20;99.90
12578;DHT22;6354;51.026;8.968;2023-02-05T07:43:30;3.20;99.90
12578;DHT22;6354;51.026;8.968;2023-02-05T07:46:02;3.30;99.90
12578;DHT22;6354;51.026;8.968;2023-02-05T07:48:30;3.30;99.90
12578;DHT22;6354;51.026;8.968;2023-02-05T07:50:59;3.30;99.90
12578;DHT22;6354;51.026;8.968;2023-02-05T07:53:27;3.30;99.90
12578;DHT22;6354;51.026;8.968;2023-02-05T07:55:56;3.30;99.90
12578;DHT22;6354;51.026;8.968;2023-02-05T07:58:24;3.30;99.90
12578;DHT22;6354;51.026;8.968;2023-02-05T08:00:52;3.30;99.90
12578;DHT22;6354;51.026;8.968;2023-02-05T08:03:21;3.20;99.90
12578;DHT22;6354;51.026;8.968;2023-02-05T08:05:49;3.30;99.90
12578;DHT22;6354;51.026;8.968;2023-02-05T08:08:17;3.30;99.90
12578;DHT22;6354;51.026;8.968;2023-02-05T08:10:45;3.20;99.90
12578;DHT22;6354;51.026;8.968;2023-02-05T08:13:13;3.20;99.90
12578;DHT22;6354;51.026;8.968;2023-02-05T08:15:41;3.20;99.90
12578;DHT22;6354;51.026;8.968;2023-02-05T08:18:09;3.20;99.90
12578;DHT22;6354;51.026;8.968;2023-02-05T08:20:39;3.30;99.90
12578;DHT22;6354;51.026;8.968;2023-02-05T08:23:07;3.30;99.90
12578;DHT22;6354;51.026;8.968;2023-02-05T08:25:35;3.30;99.90
12578;DHT22;6354;51.026;8.968;2023-02-05T08:28:03;3.30;99.90
12578;DHT22;6354;51.026;8.968;2023-02-05T08:30:31;3.30;99.90
12578;DHT22;6354;51.026;8.968;2023-02-05T08:32:59;3.30;99.90
12578;DHT22;6354;51.026;8.968;2023-02-05T08:35:27;3.30;99.90
12578;DHT22;6354;51.026;8.968;2023-02-05T08:37:57;3.30;99.90
12578;DHT22;6354;51.026;8.968;2023-02-05T08:40:25;3.30;99.90
12578;DHT22;6354;51.026;8.968;2023-02-05T08:42:53;3.30;99.90
12578;DHT22;6354;51.026;8.968;2023-02-05T08:45:23;3.30;99.90
12578;DHT22;6354;51.026;8.968;2023-02-05T08:47:51;3.30;99.90
12578;DHT22;6354;51.026;8.968;2023-02-05T08:50:20;3.30;99.90
12578;DHT22;6354;51.026;8.968;2023-02-05T08:52:49;3.30;99.90
12578;DHT22;6354;51.026;8.968;2023-02-05T08:55:18;3.30;99.90
12578;DHT22;6354;51.026;8.968;2023-02-05T08:57:46;3.40;99.90
12578;DHT22;6354;51.026;8.968;2023-02-05T09:00:15;3.40;99.90
12578;DHT22;6354;51.026;8.968;2023-02-05T09:02:43;3.40;99.90
12578;DHT22;6354;51.026;8.968;2023-02-05T09:05:11;3.50;99.90
12578;DHT22;6354;51.026;8.968;2023-02-05T09:07:40;3.50;99.90
12578;DHT22;6354;51.026;8.968;2023-02-05T09:10:09;3.50;99.90
12578;DHT22;6354;51.026;8.968;2023-02-05T09:12:39;3.40;99.90
12578;DHT22;6354;51.026;8.968;2023-02-05T09:15:08;3.50;99.90
12578;DHT22;6354;51.026;8.968;2023-02-05T09:17:36;3.50;99.90
12578;DHT22;6354;51.026;8.968;2023-02-05T09:20:05;3.50;99.90
12578;DHT22;6354;51.026;8.968;2023-02-05T09:22:33;3.50;99.90
12578;DHT22;6354;51.026;8.968;2023-02-05T09:25:01;3.60;99.90
12578;DHT22;6354;51.026;8.968;2023-02-05T09:27:29;3.60;99.90
12578;DHT22;6354;51.026;8.968;2023-02-05T09:29:59;3.60;99.90
12578;DHT22;6354;51.026;8.968;2023-02-05T09:32:27;3.70;99.90
12578;DHT22;6354;51.026;8.968;2023-02-05T09:34:55;3.70;99.90
12578;DHT22;6354;51.026;8.968;2023-02-05T09:37:23;3.70;99.90
12578;DHT22;6354;51.026;8.968;2023-02-05T09:39:51;3.70;99.90
12578;DHT22;6354;51.026;8.968;2023-02-05T09:42:43;3.70;99.90
12578;DHT22;6354;51.026;8.968;2023-02-05T09:45:24;3.80;99.90
12578;DHT22;6354;51.026;8.968;2023-02-05T09:48:11;3.80;99.90
12578;DHT22;6354;51.026;8.968;2023-02-05T09:50:41;3.80;99.90
12578;DHT22;6354;51.026;8.968;2023-02-05T09:53:13;3.90;99.90
12578;DHT22;6354;51.026;8.968;2023-02-05T09:55:45;3.90;99.90
12578;DHT22;6354;51.026;8.968;2023-02-05T09:58:15;3.90;99.90
12578;DHT22;6354;51.026;8.968;2023-02-05T10:00:47;3.90;99.90
12578;DHT22;6354;51.026;8.968;2023-02-05T10:03:22;3.90;99.90
12578;DHT22;6354;51.026;8.968;2023-02-05T10:06:10;3.90;99.90
12578;DHT22;6354;51.026;8.968;2023-02-05T10:08:48;3.90;99.90
12578;DHT22;6354;51.026;8.968;2023-02-05T10:11:25;3.80;99.90
12578;DHT22;6354;51.026;8.968;2023-02-05T10:14:02;3.90;99.90
12578;DHT22;6354;51.026;8.968;2023-02-05T10:16:52;3.90;99.90
12578;DHT22;6354;51.026;8.968;2023-02-05T10:19:45;3.90;99.90
12578;DHT22;6354;51.026;8.968;2023-02-05T10:22:21;3.90;99.90
12578;DHT22;6354;51.026;8.968;2023-02-05T10:27:49;3.80;99.90
12578;DHT22;6354;51.026;8.968;2023-02-05T10:30:21;3.90;99.90
12578;DHT22;6354;51.026;8.968;2023-02-05T10:32:57;4.00;99.90
12578;DHT22;6354;51.026;8.968;2023-02-05T10:35:31;4.10;99.90
12578;DHT22;6354;51.026;8.968;2023-02-05T10:38:04;4.00;99.90
12578;DHT22;6354;51.026;8.968;2023-02-05T10:40:40;4.00;99.90
12578;DHT22;6354;51.026;8.968;2023-02-05T10:43:17;3.90;99.90
12578;DHT22;6354;51.026;8.968;2023-02-05T10:45:47;3.90;99.90
12578;DHT22;6354;51.026;8.968;2023-02-05T10:48:28;4.00;99.90
12578;DHT22;6354;51.026;8.968;2023-02-05T10:51:02;4.10;99.90
12578;DHT22;6354;51.026;8.968;2023-02-05T10:53:31;4.10;99.90
12578;DHT22;6354;51.026;8.968;2023-02-05T10:56:01;4.10;99.90
12578;DHT22;6354;51.026;8.968;2023-02-05T10:58:43;4.20;99.90
12578;DHT22;6354;51.026;8.968;2023-02-05T11:01:16;4.30;99.90
12578;DHT22;6354;51.026;8.968;2023-02-05T11:03:53;4.30;99.90
12578;DHT22;6354;51.026;8.968;2023-02-05T11:06:25;4.30;99.90
12578;DHT22;6354;51.026;8.968;2023-02-05T11:08:54;4.30;99.90
12578;DHT22;6354;51.026;8.968;2023-02-05T11:11:25;4.30;99.90
12578;DHT22;6354;51.026;8.968;2023-02-05T11:13:56;4.40;99.90
12578;DHT22;6354;51.026;8.968;2023-02-05T11:16:35;4.40;99.90
12578;DHT22;6354;51.026;8.968;2023-02-05T11:19:17;4.50;99.90
12578;DHT22;6354;51.026;8.968;2023-02-05T11:21:49;4.50;99.90
12578;DHT22;6354;51.026;8.968;2023-02-05T11:24:27;4.50;99.90
12578;DHT22;6354;51.026;8.968;2023-02-05T11:27:24;4.60;99.90
12578;DHT22;6354;51.026;8.968;2023-02-05T11:29:54;4.60;99.90
12578;DHT22;6354;51.026;8.968;2023-02-05T11:32:31;4.60;99.90
12578;DHT22;6354;51.026;8.968;2023-02-05T11:35:15;4.70;99.90
12578;DHT22;6354;51.026;8.968;2023-02-05T11:37:45;4.70;99.90
12578;DHT22;6354;51.026;8.968;2023-02-05T11:40:22;4.80;99.90
12578;DHT22;6354;51.026;8.968;2023-02-05T11:43:01;4.80;99.90
12578;DHT22;6354;51.026;8.968;2023-02-05T11:45:31;4.80;99.90
12578;DHT22;6354;51.026;8.968;2023-02-05T11:48:01;4.90;99.90
12578;DHT22;6354;51.026;8.968;2023-02-05T11:50:32;5.00;99.90
12578;DHT22;6354;51.026;8.968;2023-02-05T11:53:13;5.10;99.90
12578;DHT22;6354;51.026;8.968;2023-02-05T11:55:42;5.10;99.90
12578;DHT22;6354;51.026;8.968;2023-02-05T11:58:23;5.20;99.90
12578;DHT22;6354;51.026;8.968;2023-02-05T12:01:05;5.30;99.90
12578;DHT22;6354;51.026;8.968;2023-02-05T12:03:34;5.20;99.90
12578;DHT22;6354;51.026;8.968;2023-02-05T12:06:11;5.20;99.90
12578;DHT22;6354;51.026;8.968;2023-02-05T12:08:45;5.20;99.90
12578;DHT22;6354;51.026;8.968;2023-02-05T12:11:33;5.00;99.90
12578;DHT22;6354;51.026;8.968;2023-02-05T12:17:25;5.10;99.90
12578;DHT22;6354;51.026;8.968;2023-02-05T12:19:59;5.00;99.90
12578;DHT22;6354;51.026;8.968;2023-02-05T12:22:45;5.00;99.90
12578;DHT22;6354;51.026;8.968;2023-02-05T12:25:19;5.00;99.90
12578;DHT22;6354;51.026;8.968;2023-02-05T12:28:08;5.00;99.90
12578;DHT22;6354;51.026;8.968;2023-02-05T12:30:49;5.20;99.90
12578;DHT22;6354;51.026;8.968;2023-02-05T12:33:29;5.30;99.90
12578;DHT22;6354;51.026;8.968;2023-02-05T12:36:10;5.40;99.90
12578;DHT22;6354;51.026;8.968;2023-02-05T12:38:55;5.40;99.90
12578;DHT22;6354;51.026;8.968;2023-02-05T12:41:32;5.40;99.90
12578;DHT22;6354;51.026;8.968;2023-02-05T12:44:11;5.50;99.90
12578;DHT22;6354;51.026;8.968;2023-02-05T12:46:53;5.50;99.90
12578;DHT22;6354;51.026;8.968;2023-02-05T12:49:36;5.50;99.90
12578;DHT22;6354;51.026;8.968;2023-02-05T12:52:19;5.60;99.90
12578;DHT22;6354;51.026;8.968;2023-02-05T12:55:03;5.60;99.90
12578;DHT22;6354;51.026;8.968;2023-02-05T12:57:37;5.70;99.90
12578;DHT22;6354;51.026;8.968;2023-02-05T13:00:14;5.70;99.90
12578;DHT22;6354;51.026;8.968;2023-02-05T13:02:51;5.60;99.90
12578;DHT22;6354;51.026;8.968;2023-02-05T13:05:25;5.70;99.90
12578;DHT22;6354;51.026;8.968;2023-02-05T13:07:59;5.60;99.90
12578;DHT22;6354;51.026;8.968;2023-02-05T13:10:36;5.60;99.90
12578;DHT22;6354;51.026;8.968;2023-02-05T13:13:08;5.50;99.90
12578;DHT22;6354;51.026;8.968;2023-02-05T13:15:40;5.40;99.90
12578;DHT22;6354;51.026;8.968;2023-02-05T13:18:15;5.40;99.90
12578;DHT22;6354;51.026;8.968;2023-02-05T13:20:47;5.30;99.90
12578;DHT22;6354;51.026;8.968;2023-02-05T13:23:35;5.30;99.90
12578;DHT22;6354;51.026;8.968;2023-02-05T13:26:29;5.40;99.90
12578;DHT22;6354;51.026;8.968;2023-02-05T13:29:18;5.50;99.90
12578;DHT22;6354;51.026;8.968;2023-02-05T13:31:49;5.60;99.90
12578;DHT22;6354;51.026;8.968;2023-02-05T13:34:18;5.50;99.90
12578;DHT22;6354;51.026;8.968;2023-02-05T13:37:21;5.50;99.90
12578;DHT22;6354;51.026;8.968;2023-02-05T13:40:26;5.50;99.90
12578;DHT22;6354;51.026;8.968;2023-02-05T13:43:21;5.50;99.90
12578;DHT22;6354;51.026;8.968;2023-02-05T13:46:18;5.40;99.90
12578;DHT22;6354;51.026;8.968;2023-02-05T13:52:26;5.30;99.90
12578;DHT22;6354;51.026;8.968;2023-02-05T13:58:13;5.20;99.90
12578;DHT22;6354;51.026;8.968;2023-02-05T14:00:57;5.20;99.90
12578;DHT22;6354;51.026;8.968;2023-02-05T14:03:35;5.20;99.90
12578;DHT22;6354;51.026;8.968;2023-02-05T14:06:16;5.20;99.90
12578;DHT22;6354;51.026;8.968;2023-02-05T14:08:49;5.20;99.90
12578;DHT22;6354;51.026;8.968;2023-02-05T14:11:17;5.20;99.90
12578;DHT22;6354;51.026;8.968;2023-02-05T14:14:18;5.10;99.90
12578;DHT22;6354;51.026;8.968;2023-02-05T14:16:47;5.10;99.90
12578;DHT22;6354;51.026;8.968;2023-02-05T14:19:19;5.10;99.90
12578;DHT22;6354;51.026;8.968;2023-02-05T14:22:01;5.10;99.90
12578;DHT22;6354;51.026;8.968;2023-02-05T14:24:50;5.00;99.90
12578;DHT22;6354;51.026;8.968;2023-02-05T14:27:42;5.10;99.90
12578;DHT22;6354;51.026;8.968;2023-02-05T14:30:34;5.10;99.90
12578;DHT22;6354;51.026;8.968;2023-02-05T14:33:28;5.10;99.90
12578;DHT22;6354;51.026;8.968;2023-02-05T14:36:24;5.20;99.90
12578;DHT22;6354;51.026;8.968;2023-02-05T14:38:57;5.20;99.90
12578;DHT22;6354;51.026;8.968;2023-02-05T14:41:29;5.20;99.90
12578;DHT22;6354;51.026;8.968;2023-02-05T14:44:01;5.20;99.90
12578;DHT22;6354;51.026;8.968;2023-02-05T14:46:35;5.20;99.90
12578;DHT22;6354;51.026;8.968;2023-02-05T14:49:06;5.20;99.90
12578;DHT22;6354;51.026;8.968;2023-02-05T14:51:48;5.20;99.90
12578;DHT22;6354;51.026;8.968;2023-02-05T14:54:21;5.20;99.90
12578;DHT22;6354;51.026;8.968;2023-02-05T14:56:51;5.20;99.90
12578;DHT22;6354;51.026;8.968;2023-02-05T14:59:25;5.10;99.90
12578;DHT22;6354;51.026;8.968;2023-02-05T15:01:57;5.10;99.90
12578;DHT22;6354;51.026;8.968;2023-02-05T15:04:39;5.10;99.90
12578;DHT22;6354;51.026;8.968;2023-02-05T15:07:12;5.10;99.90
12578;DHT22;6354;51.026;8.968;2023-02-05T15:09:45;5.20;99.90
12578;DHT22;6354;51.026;8.968;2023-02-05T15:12:34;5.20;99.90
12578;DHT22;6354;51.026;8.968;2023-02-05T15:15:24;5.20;99.90
12578;DHT22;6354;51.026;8.968;2023-02-05T15:18:04;5.20;99.90
12578;DHT22;6354;51.026;8.968;2023-02-05T15:20:34;5.20;99.90
12578;DHT22;6354;51.026;8.968;2023-02-05T15:23:15;5.20;99.90
12578;DHT22;6354;51.026;8.968;2023-02-05T15:25:51;5.20;99.90
12578;DHT22;6354;51.026;8.968;2023-02-05T15:28:24;5.20;99.90
12578;DHT22;6354;51.026;8.968;2023-02-05T15:33:51;5.30;99.90
12578;DHT22;6354;51.026;8.968;2023-02-05T15:36:27;5.20;99.90
12578;DHT22;6354;51.026;8.968;2023-02-05T15:39:13;5.20;99.90
12578;DHT22;6354;51.026;8.968;2023-02-05T15:41:46;5.20;99.90
12578;DHT22;6354;51.026;8.968;2023-02-05T15:44:26;5.20;99.90
12578;DHT22;6354;51.026;8.968;2023-02-05T15:46:57;5.20;99.90
12578;DHT22;6354;51.026;8.968;2023-02-05T15:49:34;5.20;99.90
12578;DHT22;6354;51.026;8.968;2023-02-05T15:52:03;5.20;99.90
12578;DHT22;6354;51.026;8.968;2023-02-05T15:54:34;5.20;99.90
12578;DHT22;6354;51.026;8.968;2023-02-05T15:57:03;5.20;99.90
12578;DHT22;6354;51.026;8.968;2023-02-05T15:59:33;5.20;99.90
12578;DHT22;6354;51.026;8.968;2023-02-05T16:02:04;5.20;99.90
12578;DHT22;6354;51.026;8.968;2023-02-05T16:04:36;5.20;99.90
12578;DHT22;6354;51.026;8.968;2023-02-05T16:07:17;5.10;99.90
12578;DHT22;6354;51.026;8.968;2023-02-05T16:09:46;5.10;99.90
12578;DHT22;6354;51.026;8.968;2023-02-05T16:12:15;5.20;99.90
12578;DHT22;6354;51.026;8.968;2023-02-05T16:14:43;5.20;99.90
12578;DHT22;6354;51.026;8.968;2023-02-05T16:17:17;5.20;99.90
12578;DHT22;6354;51.026;8.968;2023-02-05T16:19:50;5.10;99.90
12578;DHT22;6354;51.026;8.968;2023-02-05T16:22:26;5.10;99.90
12578;DHT22;6354;51.026;8.968;2023-02-05T16:24:59;5.10;99.90
12578;DHT22;6354;51.026;8.968;2023-02-05T16:27:32;5.10;99.90
12578;DHT22;6354;51.026;8.968;2023-02-05T16:30:04;5.10;99.90
12578;DHT22;6354;51.026;8.968;2023-02-05T16:32:37;5.10;99.90
12578;DHT22;6354;51.026;8.968;2023-02-05T16:35:19;5.10;99.90
12578;DHT22;6354;51.026;8.968;2023-02-05T16:37:48;5.00;99.90
12578;DHT22;6354;51.026;8.968;2023-02-05T16:40:28;5.10;99.90
12578;DHT22;6354;51.026;8.968;2023-02-05T16:42:57;5.00;99.90
12578;DHT22;6354;51.026;8.968;2023-02-05T16:45:25;5.20;99.90
12578;DHT22;6354;51.026;8.968;2023-02-05T16:48:21;5.00;99.90
12578;DHT22;6354;51.026;8.968;2023-02-05T16:50:51;5.00;99.90
12578;DHT22;6354;51.026;8.968;2023-02-05T16:53:24;5.00;99.90
12578;DHT22;6354;51.026;8.968;2023-02-05T16:55:55;5.00;99.90